This is the latest recevied weather packets stored in our database for station/object N0EDB-13. If no packets are shown the sender has not sent any weather packets the latest 10 day(s).
| Time | Temp. | Humidity | Pressure | Rain* | Wind** | Luminosity | Snow |
|---|---|---|---|---|---|---|---|
| 1777407669 | 13.33° C | 47% | 1493.5 hPa | 0 mm | - | 999 W/m² | - |
| 1777407368 | 13.33° C | 46% | 1494.4 hPa | 0 mm | - | 999 W/m² | - |
| 1777407067 | 12.78° C | 47% | 1494.8 hPa | 0 mm | - | 999 W/m² | - |
| 1777406767 | 12.78° C | 43% | 1495.1 hPa | 0 mm | - | 556 W/m² | - |
| 1777406466 | 12.78° C | 45% | 1495.9 hPa | 0 mm | - | 999 W/m² | - |
| 1777406165 | 12.78° C | 46% | 1495.3 hPa | 0 mm | - | 288 W/m² | - |
| 1777405864 | 12.78° C | 45% | 1495.1 hPa | 0 mm | - | 371 W/m² | - |
| 1777405563 | 12.78° C | 45% | 1494.9 hPa | 0 mm | - | 342 W/m² | - |
| 1777405262 | 13.33° C | 44% | 1494 hPa | 0 mm | - | 310 W/m² | - |
| 1777404961 | 13.33° C | 46% | 1492.7 hPa | 0 mm | - | 516 W/m² | - |
| 1777404661 | 13.33° C | 44% | 1492.6 hPa | 0 mm | - | 904 W/m² | - |
| 1777404360 | 12.78° C | 48% | 1494.3 hPa | 0 mm | - | 999 W/m² | - |
| 1777404060 | 12.78° C | 48% | 1495.4 hPa | 0 mm | - | 805 W/m² | - |
| 1777403758 | 12.22° C | 49% | 1495.6 hPa | 0 mm | - | 970 W/m² | - |
| 1777403458 | 12.78° C | 48% | 1494.9 hPa | 0 mm | - | 487 W/m² | - |
| 1777403158 | 12.78° C | 48% | 1494.8 hPa | 0 mm | - | 748 W/m² | - |
| 1777402857 | 12.78° C | 49% | 1495.5 hPa | 0 mm | - | 520 W/m² | - |
| 1777402557 | 12.78° C | 48% | 1495.9 hPa | 0 mm | - | 683 W/m² | - |
| 1777402257 | 11.67° C | 51% | 1497.8 hPa | 0 mm | - | 910 W/m² | - |
| 1777401956 | 11.67° C | 53% | 1498.1 hPa | 0 mm | - | 363 W/m² | - |
| 1777401655 | 11.67° C | 54% | 1498.6 hPa | 0 mm | - | 348 W/m² | - |
| 1777401354 | 11.67° C | 53% | 1497.9 hPa | 0 mm | - | 377 W/m² | - |
| 1777401053 | 12.22° C | 52% | 1496.3 hPa | 0 mm | - | 406 W/m² | - |
| 1777400753 | 12.78° C | 51% | 1496.2 hPa | 0 mm | - | 999 W/m² | - |
| 1777400452 | 12.22° C | 55% | 1497.7 hPa | 0 mm | - | 999 W/m² | - |
* Rain latest hour (hover to see other rain measurements)
** Current wind speed in m/s (hover to see current wind gust speed)